createdAt,value
2023-01-06T00:00:28.739Z,59.27
2023-01-06T00:02:56.471Z,59.33
2023-01-06T00:05:24.005Z,59.36
2023-01-06T00:07:51.602Z,59.56
2023-01-06T00:10:19.290Z,59.46
2023-01-06T00:12:46.829Z,59.37
2023-01-06T00:15:15.941Z,59.43
2023-01-06T00:17:43.511Z,59.31
2023-01-06T00:20:11.894Z,59.46
2023-01-06T00:22:40.006Z,59.39
2023-01-06T00:25:10.095Z,59.44
2023-01-06T00:27:37.821Z,59.30
2023-01-06T00:30:05.748Z,59.35
2023-01-06T00:32:34.787Z,59.43
2023-01-06T00:35:02.364Z,59.30
2023-01-06T00:37:29.967Z,59.29
2023-01-06T00:39:57.563Z,59.36
2023-01-06T00:42:25.853Z,59.34
2023-01-06T00:44:53.473Z,59.44
2023-01-06T00:47:21.694Z,59.47
2023-01-06T00:49:51.024Z,59.40
2023-01-06T00:52:18.688Z,59.44
2023-01-06T00:54:46.322Z,59.46
2023-01-06T00:57:15.307Z,59.61
2023-01-06T00:59:42.878Z,59.68
2023-01-06T01:02:10.537Z,59.63
2023-01-06T01:04:38.303Z,59.68
2023-01-06T01:07:07.311Z,59.60
2023-01-06T01:09:34.894Z,59.71
2023-01-06T01:12:11.878Z,59.68
2023-01-06T01:14:40.488Z,59.75
2023-01-06T01:17:08.104Z,59.71
2023-01-06T01:19:35.729Z,59.72
2023-01-06T01:22:03.326Z,59.87
2023-01-06T01:24:32.273Z,59.82
2023-01-06T01:26:59.988Z,59.92
2023-01-06T01:29:27.599Z,59.96
2023-01-06T01:31:55.350Z,59.92
2023-01-06T01:34:22.933Z,60.00
2023-01-06T01:36:50.926Z,60.04
2023-01-06T01:39:20.436Z,60.05
2023-01-06T01:41:49.710Z,60.21
2023-01-06T01:44:36.244Z,60.43
2023-01-06T01:47:04.146Z,60.33
2023-01-06T01:49:32.240Z,60.32
2023-01-06T01:51:59.785Z,60.39
2023-01-06T01:54:28.336Z,60.52
2023-01-06T01:56:57.918Z,60.53
2023-01-06T01:59:26.483Z,60.54
2023-01-06T02:01:54.371Z,60.56
2023-01-06T02:04:21.972Z,60.50
2023-01-06T02:06:50.618Z,60.52
2023-01-06T02:09:19.551Z,60.58
2023-01-06T02:11:48.912Z,60.56
2023-01-06T02:14:18.557Z,60.45
2023-01-06T02:16:59.846Z,60.55
2023-01-06T02:19:34.724Z,60.52
2023-01-06T02:22:06.909Z,60.55
2023-01-06T02:24:54.735Z,60.62
2023-01-06T02:27:30.974Z,60.60
2023-01-06T02:30:06.779Z,60.83
2023-01-06T02:32:39.459Z,61.00
2023-01-06T02:35:10.948Z,60.99
2023-01-06T02:37:43.662Z,61.01
2023-01-06T02:40:13.255Z,60.94
2023-01-06T02:42:43.421Z,60.83
2023-01-06T02:45:13.122Z,60.95
2023-01-06T02:47:43.985Z,60.99
2023-01-06T02:50:13.109Z,60.86
2023-01-06T02:52:42.777Z,61.02
2023-01-06T02:55:11.715Z,61.00
2023-01-06T02:57:40.774Z,61.18
2023-01-06T03:00:10.941Z,61.14
2023-01-06T03:02:38.717Z,61.26
2023-01-06T03:05:08.480Z,61.39
2023-01-06T03:07:37.220Z,61.35
2023-01-06T03:10:05.203Z,61.25
2023-01-06T03:12:33.722Z,61.19
2023-01-06T03:15:01.424Z,61.34
2023-01-06T03:17:29.026Z,61.39
2023-01-06T03:19:56.549Z,61.60
2023-01-06T03:22:25.728Z,61.51
2023-01-06T03:24:53.347Z,61.34
2023-01-06T03:27:24.249Z,61.34
2023-01-06T03:29:51.919Z,61.33
2023-01-06T03:32:20.415Z,61.25
2023-01-06T03:34:52.200Z,61.25
2023-01-06T03:37:22.314Z,61.27
2023-01-06T03:39:54.651Z,61.26
2023-01-06T03:42:41.520Z,61.27
2023-01-06T03:45:11.698Z,61.25
2023-01-06T03:47:40.602Z,61.21
2023-01-06T03:50:10.885Z,61.27
2023-01-06T03:52:40.804Z,61.58
2023-01-06T03:55:11.097Z,61.71
2023-01-06T03:57:39.004Z,61.87
2023-01-06T04:00:11.668Z,61.84
2023-01-06T04:02:46.069Z,61.76
2023-01-06T04:05:17.992Z,61.89
2023-01-06T04:07:46.508Z,62.03
2023-01-06T04:10:16.893Z,62.08
2023-01-06T04:12:44.355Z,61.83
2023-01-06T04:15:16.529Z,61.73
2023-01-06T04:17:46.116Z,61.80
2023-01-06T04:20:16.046Z,61.81
2023-01-06T04:22:44.405Z,61.82
2023-01-06T04:25:12.143Z,61.79
2023-01-06T04:27:42.568Z,61.80
2023-01-06T04:30:11.481Z,61.68
2023-01-06T04:32:39.215Z,61.58
2023-01-06T04:35:08.887Z,61.45
2023-01-06T04:37:36.523Z,61.40
2023-01-06T04:40:04.433Z,61.34
2023-01-06T04:42:52.646Z,61.41
2023-01-06T04:45:21.643Z,61.41
2023-01-06T04:47:49.202Z,61.44
2023-01-06T04:50:16.851Z,61.34
2023-01-06T04:52:44.478Z,61.43
2023-01-06T04:55:12.064Z,61.53
2023-01-06T04:57:39.709Z,61.56
2023-01-06T05:00:08.058Z,61.50
